Time;durP1;ratioP1;P1;durP2;ratioP2;P2;SDS_P1;SDS_P2;PMS_P1;PMS_P2;Temp;Humidity;BMP_temperature;BMP_pressure;BME280_temperature;BME280_humidity;BME280_pressure;Samples;Min_cycle;Max_cycle;Signal;HPM_P1;HPM_P2
2023/12/01 00:00:09;;;;;;;6.90;6.30;;;15.50;61.90;16.30;99450.00;;;;5048341;28;20209;-44
2023/12/01 00:02:34;;;;;;;6.47;5.93;;;15.60;62.00;16.30;99447.00;;;;5048972;28;20190;-45
2023/12/01 00:05:00;;;;;;;6.30;5.80;;;15.50;62.10;16.30;99451.00;;;;5048846;28;20206;-46
2023/12/01 00:07:26;;;;;;;6.00;5.50;;;15.50;62.20;16.30;99454.00;;;;5049278;28;20733;-44
2023/12/01 00:09:52;;;;;;;6.53;5.93;;;15.50;62.30;16.30;99459.00;;;;5048934;28;20237;-44
2023/12/01 00:12:18;;;;;;;6.43;5.83;;;15.50;62.40;16.20;99460.00;;;;5049009;28;20181;-44
2023/12/01 00:14:43;;;;;;;6.27;5.67;;;15.40;62.40;16.20;99471.00;;;;5048947;28;20201;-44
2023/12/01 00:17:09;;;;;;;6.20;5.70;;;15.40;62.30;16.20;99467.00;;;;5048890;28;20673;-45
2023/12/01 00:19:35;;;;;;;6.23;5.73;;;15.50;62.40;16.20;99465.00;;;;5049061;28;20178;-44
2023/12/01 00:22:00;;;;;;;6.10;5.60;;;15.40;62.30;16.10;99481.00;;;;5049237;28;20189;-45
2023/12/01 00:24:26;;;;;;;6.20;5.70;;;15.40;62.40;16.10;99433.00;;;;5049343;28;20209;-45
2023/12/01 00:26:52;;;;;;;6.20;5.70;;;15.40;62.40;16.10;99476.00;;;;5049070;28;20182;-45
2023/12/01 00:29:18;;;;;;;5.60;5.10;;;15.30;62.30;16.10;99480.00;;;;5050281;28;20222;-45
2023/12/01 00:31:44;;;;;;;6.20;5.60;;;15.30;62.30;16.10;99483.00;;;;5050708;28;20545;-44
2023/12/01 00:34:10;;;;;;;6.40;5.90;;;15.30;62.40;16.10;99488.00;;;;5043691;28;20202;-44
2023/12/01 00:36:35;;;;;;;6.50;5.90;;;15.30;62.50;16.10;99490.00;;;;5049678;28;20546;-45
2023/12/01 00:39:01;;;;;;;6.20;5.67;;;15.30;62.60;16.00;99497.00;;;;5048896;28;20190;-45
2023/12/01 00:41:27;;;;;;;6.17;5.67;;;15.30;62.50;16.00;99495.00;;;;5049191;28;20214;-45
2023/12/01 00:43:52;;;;;;;6.30;5.80;;;15.20;62.50;16.00;99489.00;;;;5048695;28;20608;-44
2023/12/01 00:46:18;;;;;;;5.90;5.40;;;15.20;62.60;16.00;99489.00;;;;5051103;28;20231;-45
2023/12/01 00:48:44;;;;;;;6.30;5.70;;;15.20;62.70;15.90;99501.00;;;;5052919;28;20689;-44
2023/12/01 00:51:17;;;;;;;5.83;5.33;;;15.20;62.60;15.90;99499.00;;;;5052817;28;20181;-45
2023/12/01 00:53:43;;;;;;;5.93;5.43;;;15.20;62.80;16.00;99482.00;;;;5063684;28;20290;-44
2023/12/01 00:56:13;;;;;;;5.83;5.33;;;15.20;62.80;16.00;99491.00;;;;5066429;28;20174;-45
2023/12/01 00:58:39;;;;;;;6.00;5.50;;;15.20;62.70;16.00;99496.00;;;;5055237;28;20324;-45
2023/12/01 01:01:06;;;;;;;6.23;5.63;;;15.20;62.90;16.00;99500.00;;;;5052875;28;20684;-45
2023/12/01 01:03:33;;;;;;;5.97;5.47;;;15.20;62.70;16.00;99343.00;;;;5052417;28;20217;-45
2023/12/01 01:05:58;;;;;;;6.13;5.63;;;15.20;62.70;16.00;99503.00;;;;5052258;28;20292;-44
2023/12/01 01:08:24;;;;;;;6.43;5.83;;;15.20;62.70;16.00;99499.00;;;;5051836;28;20174;-45
2023/12/01 01:10:50;;;;;;;6.20;5.70;;;15.20;62.80;16.00;99499.00;;;;5051427;28;20537;-45
2023/12/01 01:13:15;;;;;;;6.00;5.50;;;15.20;62.70;16.00;99500.00;;;;5049803;28;20194;-45
2023/12/01 01:15:41;;;;;;;6.07;5.57;;;15.10;62.50;16.00;99495.00;;;;5051366;28;20182;-45
2023/12/01 01:18:07;;;;;;;5.87;5.37;;;15.20;62.50;16.00;99506.00;;;;5051323;28;20178;-45
2023/12/01 01:20:33;;;;;;;5.77;5.27;;;15.20;62.30;16.00;99503.00;;;;5051311;28;20197;-44
2023/12/01 01:22:58;;;;;;;5.97;5.47;;;15.20;62.20;16.00;99500.00;;;;5050789;28;20262;-44
2023/12/01 01:25:24;;;;;;;5.70;5.30;;;15.20;62.90;16.00;99502.00;;;;5051158;28;20236;-44
2023/12/01 01:27:50;;;;;;;5.60;5.13;;;15.10;63.20;16.00;99503.00;;;;5050975;28;20186;-45
2023/12/01 01:30:16;;;;;;;5.67;5.27;;;15.10;63.40;15.90;99497.00;;;;5051082;28;20388;-45
2023/12/01 01:32:41;;;;;;;5.70;5.20;;;15.10;63.50;15.90;99497.00;;;;5050833;28;20206;-45
2023/12/01 01:35:08;;;;;;;5.80;5.30;;;15.10;63.50;15.90;99515.00;;;;5050994;28;21347;-45
2023/12/01 01:37:33;;;;;;;5.57;5.17;;;15.00;63.40;15.90;99502.00;;;;5051424;28;20182;-45
2023/12/01 01:39:59;;;;;;;5.30;4.80;;;15.00;63.40;15.90;99506.00;;;;5051302;28;20189;-45
2023/12/01 01:42:25;;;;;;;5.70;5.20;;;15.00;63.50;15.80;99508.00;;;;5050934;28;20750;-45
2023/12/01 01:44:51;;;;;;;5.40;5.00;;;15.00;63.50;15.80;99508.00;;;;5050360;28;20565;-45
2023/12/01 01:47:17;;;;;;;5.80;5.30;;;15.00;63.80;15.80;99503.00;;;;5050983;28;20636;-45
2023/12/01 01:49:42;;;;;;;5.87;5.33;;;15.00;63.50;15.70;99500.00;;;;5050599;28;20210;-44
2023/12/01 01:52:08;;;;;;;5.63;5.17;;;15.00;63.70;15.70;99504.00;;;;5050273;28;20257;-45
2023/12/01 01:54:34;;;;;;;5.37;4.97;;;14.90;63.80;15.70;99500.00;;;;5049405;28;20194;-44
2023/12/01 01:57:00;;;;;;;5.67;5.00;;;15.00;64.10;15.70;99494.00;;;;5050392;28;20743;-45
2023/12/01 01:59:25;;;;;;;5.60;5.10;;;14.90;63.90;15.70;99503.00;;;;5049420;28;20197;-44
2023/12/01 02:01:51;;;;;;;6.00;5.23;;;14.90;63.90;15.60;99513.00;;;;5049816;28;20247;-44
2023/12/01 02:04:17;;;;;;;5.40;4.90;;;14.90;63.90;15.60;99511.00;;;;5050253;28;20332;-44
2023/12/01 02:06:46;;;;;;;5.47;4.97;;;14.80;63.90;15.60;99516.00;;;;5050431;28;20656;-45
2023/12/01 02:09:15;;;;;;;5.43;4.93;;;14.90;63.90;15.60;99514.00;;;;5050191;28;20245;-46
2023/12/01 02:11:41;;;;;;;5.20;4.80;;;14.90;63.90;15.60;99513.00;;;;5050414;28;20174;-44
2023/12/01 02:14:07;;;;;;;5.70;5.20;;;14.90;64.00;15.60;99508.00;;;;5048714;28;20201;-44
2023/12/01 02:16:32;;;;;;;5.87;5.37;;;14.80;63.80;15.60;99429.00;;;;5049109;28;20185;-45
2023/12/01 02:18:58;;;;;;;5.23;4.73;;;14.80;63.90;15.50;99504.00;;;;5049987;28;20181;-45
2023/12/01 02:21:24;;;;;;;5.53;5.03;;;14.80;63.80;15.50;99501.00;;;;5050295;28;20722;-44
2023/12/01 02:23:54;;;;;;;5.37;4.97;;;14.80;63.80;15.50;99511.00;;;;5049664;28;20209;-45
2023/12/01 02:26:23;;;;;;;5.20;4.80;;;14.80;63.80;15.50;99506.00;;;;5050448;28;20179;-45
2023/12/01 02:28:49;;;;;;;5.00;4.60;;;14.70;63.80;15.50;99505.00;;;;5049709;28;20206;-44
2023/12/01 02:31:15;;;;;;;5.50;5.00;;;14.70;63.70;15.50;99512.00;;;;5050343;28;20181;-44
2023/12/01 02:33:40;;;;;;;5.40;5.00;;;14.70;63.70;15.50;99512.00;;;;5044460;28;20201;-44
2023/12/01 02:36:08;;;;;;;5.03;4.53;;;14.70;63.70;15.50;99504.00;;;;5049126;28;20666;-44
2023/12/01 02:38:34;;;;;;;5.50;5.10;;;14.70;63.80;15.50;99520.00;;;;5048692;28;20183;-45
2023/12/01 02:41:02;;;;;;;5.20;4.80;;;14.70;63.70;15.50;99517.00;;;;5049773;28;20249;-45
2023/12/01 02:43:28;;;;;;;5.20;4.80;;;14.70;63.70;15.50;99516.00;;;;5043182;28;20237;-45
2023/12/01 02:45:53;;;;;;;5.20;4.80;;;14.70;63.70;15.50;99507.00;;;;5048614;28;20213;-45
2023/12/01 02:48:19;;;;;;;5.03;4.63;;;14.70;63.70;15.40;99509.00;;;;5049509;28;20181;-45
2023/12/01 02:50:45;;;;;;;5.00;4.60;;;14.70;63.70;15.50;99502.00;;;;5048193;28;20217;-45
2023/12/01 02:53:11;;;;;;;5.53;5.10;;;14.60;63.60;15.50;99513.00;;;;5047087;28;20576;-45
2023/12/01 02:55:36;;;;;;;5.60;5.10;;;14.70;63.70;15.50;99507.00;;;;5048988;28;20182;-44
2023/12/01 02:58:02;;;;;;;5.30;4.90;;;14.60;63.60;15.10;99509.00;;;;5048744;28;20652;-44
2023/12/01 03:00:29;;;;;;;5.13;4.73;;;14.60;63.60;15.50;99505.00;;;;5047768;28;20261;-44
2023/12/01 03:02:54;;;;;;;5.30;4.80;;;14.70;63.70;15.40;99507.00;;;;5048098;28;20182;-44
2023/12/01 03:05:20;;;;;;;5.13;4.63;;;14.60;63.60;15.40;99520.00;;;;5047462;28;20244;-45
2023/12/01 03:07:46;;;;;;;5.20;4.80;;;14.60;63.70;15.40;99507.00;;;;5048774;28;20641;-45
2023/12/01 03:10:12;;;;;;;5.13;4.60;;;14.60;63.70;15.40;99507.00;;;;5042244;28;20198;-50
2023/12/01 03:12:39;;;;;;;5.50;5.00;;;14.50;63.70;15.40;99508.00;;;;5048437;28;20186;-45
2023/12/01 03:15:13;;;;;;;5.17;4.77;;;14.60;63.70;15.40;99501.00;;;;5047245;28;20640;-45
2023/12/01 03:17:39;;;;;;;5.20;4.77;;;14.60;63.60;15.40;99513.00;;;;5047561;28;20189;-46
2023/12/01 03:20:10;;;;;;;4.90;4.50;;;14.50;63.50;15.40;99521.00;;;;5048892;28;20178;-46
2023/12/01 03:22:39;;;;;;;4.80;4.40;;;14.60;63.60;15.40;99510.00;;;;5048959;28;20589;-46
2023/12/01 03:25:11;;;;;;;4.80;4.40;;;14.60;63.60;15.40;99508.00;;;;5047859;28;20202;-45
2023/12/01 03:27:41;;;;;;;5.10;4.70;;;14.50;63.50;15.40;99505.00;;;;5046441;28;20273;-45
2023/12/01 03:30:19;;;;;;;5.10;4.70;;;14.50;63.40;15.40;99518.00;;;;5047594;28;20221;-46
2023/12/01 03:32:49;;;;;;;4.50;4.20;;;14.60;63.50;15.40;99516.00;;;;5044430;28;20678;-45
2023/12/01 03:35:24;;;;;;;5.10;4.70;;;14.50;63.50;15.30;99518.00;;;;5049125;28;20250;-46
2023/12/01 03:37:57;;;;;;;5.20;4.77;;;14.50;63.50;15.30;99529.00;;;;5049468;28;20715;-46
2023/12/01 03:40:27;;;;;;;5.13;4.63;;;14.50;63.50;15.30;99532.00;;;;5051277;28;20724;-45
2023/12/01 03:42:53;;;;;;;4.73;4.33;;;14.40;63.40;15.30;99531.00;;;;5048425;28;20628;-46
2023/12/01 03:45:18;;;;;;;4.73;4.33;;;14.50;63.50;15.30;99531.00;;;;5048570;28;20217;-45
2023/12/01 03:47:49;;;;;;;5.33;4.83;;;14.40;63.40;15.30;99535.00;;;;5046945;28;20186;-45
2023/12/01 03:50:15;;;;;;;5.27;4.87;;;14.40;63.40;15.30;99548.00;;;;5040852;28;20210;-45
2023/12/01 03:52:43;;;;;;;4.63;4.30;;;14.40;63.30;15.30;99563.00;;;;5048056;28;20659;-45
2023/12/01 03:55:09;;;;;;;4.73;4.30;;;14.40;63.10;15.30;99543.00;;;;5047399;28;20609;-45
2023/12/01 03:57:39;;;;;;;5.27;4.87;;;14.40;63.30;15.30;99550.00;;;;5048044;28;20185;-45
2023/12/01 04:00:14;;;;;;;5.10;4.60;;;14.40;63.30;15.30;99550.00;;;;5046945;28;20174;-46
2023/12/01 04:02:41;;;;;;;5.07;4.57;;;14.40;63.40;15.20;99548.00;;;;5042709;28;20608;-44
2023/12/01 04:05:08;;;;;;;5.00;4.60;;;14.40;63.40;15.20;99540.00;;;;5047167;28;20194;-45
2023/12/01 04:07:34;;;;;;;4.87;4.43;;;14.30;63.30;15.20;99540.00;;;;5040718;28;20190;-44
2023/12/01 04:10:01;;;;;;;4.90;4.50;;;14.30;63.30;15.20;99501.00;;;;5047908;28;20218;-45
2023/12/01 04:12:30;;;;;;;4.70;4.30;;;14.30;63.30;15.20;99552.00;;;;5048326;28;20683;-44
2023/12/01 04:14:56;;;;;;;4.70;4.30;;;14.30;63.30;15.20;99550.00;;;;5047512;28;20228;-44
2023/12/01 04:17:22;;;;;;;4.70;4.30;;;14.30;63.30;15.20;99561.00;;;;5048003;28;20645;-44
2023/12/01 04:19:48;;;;;;;4.83;4.43;;;14.30;63.30;15.20;99566.00;;;;5048446;28;20232;-47
2023/12/01 04:22:13;;;;;;;4.87;4.47;;;14.30;63.30;15.20;99567.00;;;;5048792;28;20578;-45
2023/12/01 04:24:39;;;;;;;4.90;4.50;;;14.30;63.30;15.20;99567.00;;;;5049356;28;20601;-44
2023/12/01 04:27:05;;;;;;;6.23;4.50;;;14.30;63.30;15.10;99575.00;;;;5049299;28;20269;-44
2023/12/01 04:29:31;;;;;;;5.13;4.63;;;14.30;64.40;15.10;99573.00;;;;5049072;28;20232;-43
2023/12/01 04:31:57;;;;;;;5.50;4.30;;;14.20;64.70;15.10;99578.00;;;;5048592;28;20182;-45
2023/12/01 04:34:26;;;;;;;5.00;4.50;;;14.20;65.40;15.10;99575.00;;;;5043239;28;20215;-44
2023/12/01 04:36:52;;;;;;;4.83;4.33;;;14.30;64.30;15.10;99587.00;;;;5048847;28;20182;-46
2023/12/01 04:39:18;;;;;;;4.87;4.47;;;14.30;64.10;15.10;99588.00;;;;5048956;28;20174;-45
2023/12/01 04:41:44;;;;;;;4.53;4.13;;;14.30;63.90;15.10;99585.00;;;;5048761;28;20228;-45
2023/12/01 04:44:09;;;;;;;4.60;4.10;;;14.30;63.90;15.10;99583.00;;;;5048297;28;20198;-45
2023/12/01 04:46:35;;;;;;;5.23;4.70;;;14.30;64.00;15.10;99589.00;;;;5049108;28;20189;-46
2023/12/01 04:49:01;;;;;;;4.93;4.47;;;14.20;63.80;15.00;99575.00;;;;5048732;28;20202;-46
2023/12/01 04:51:27;;;;;;;5.30;4.77;;;14.20;63.70;15.00;99587.00;;;;5048273;28;20178;-46
2023/12/01 04:53:52;;;;;;;5.10;4.70;;;14.20;63.50;15.00;99590.00;;;;5048392;28;20202;-45
2023/12/01 04:56:18;;;;;;;5.73;4.73;;;14.10;63.20;15.00;99593.00;;;;5048862;28;20175;-44
2023/12/01 04:58:44;;;;;;;5.73;5.00;;;14.10;63.10;15.00;99595.00;;;;5048616;28;20179;-44
2023/12/01 05:01:10;;;;;;;5.43;4.87;;;14.10;63.10;14.90;99596.00;;;;5048754;28;20558;-45
2023/12/01 05:03:36;;;;;;;5.87;5.37;;;14.10;63.00;14.90;99598.00;;;;5048506;28;20198;-44
2023/12/01 05:06:01;;;;;;;5.53;5.13;;;14.10;62.90;14.90;99607.00;;;;5048596;28;20301;-44
2023/12/01 05:08:27;;;;;;;5.50;5.10;;;14.00;62.60;14.90;99597.00;;;;5048568;28;20541;-44
2023/12/01 05:10:54;;;;;;;6.00;5.50;;;14.00;62.40;14.90;99601.00;;;;5049385;28;20209;-45
2023/12/01 05:13:20;;;;;;;5.90;5.40;;;14.00;62.40;14.90;99612.00;;;;5054705;28;20233;-44
2023/12/01 05:15:46;;;;;;;6.43;5.83;;;14.00;62.30;14.80;99599.00;;;;5048973;28;20584;-45
2023/12/01 05:18:11;;;;;;;6.30;5.70;;;14.00;62.00;14.80;99607.00;;;;5048632;28;20174;-45
2023/12/01 05:20:38;;;;;;;7.90;5.77;;;13.90;61.90;14.80;99609.00;;;;5049096;28;20668;-43
2023/12/01 05:23:05;;;;;;;7.33;5.90;;;13.90;61.90;14.80;99607.00;;;;5048420;28;20221;-44
2023/12/01 05:25:32;;;;;;;6.10;5.60;;;13.90;62.00;14.80;99612.00;;;;5048713;28;20644;-44
2023/12/01 05:27:59;;;;;;;8.33;6.20;;;13.90;61.70;14.80;99603.00;;;;5047108;28;20748;-44
2023/12/01 05:30:29;;;;;;;7.73;6.40;;;13.90;61.60;14.80;99607.00;;;;5048912;28;20635;-44
2023/12/01 05:32:56;;;;;;;7.93;6.50;;;13.90;61.50;14.80;99616.00;;;;5050990;28;20178;-43
2023/12/01 05:35:22;;;;;;;10.17;7.20;;;13.90;61.50;14.80;99604.00;;;;5052190;28;20166;-44
2023/12/01 05:37:49;;;;;;;6.57;5.97;;;13.90;61.30;14.80;99605.00;;;;5052047;28;20185;-44
2023/12/01 05:40:20;;;;;;;6.80;6.10;;;13.90;61.50;14.80;99621.00;;;;5044652;28;20644;-45
2023/12/01 05:42:47;;;;;;;6.47;5.87;;;13.90;61.30;14.80;99609.00;;;;5051709;28;20183;-45
2023/12/01 05:45:15;;;;;;;7.07;5.93;;;13.90;61.30;14.70;99612.00;;;;5050352;28;20301;-45
2023/12/01 05:47:45;;;;;;;7.40;5.87;;;13.90;61.30;14.70;99610.00;;;;5051816;28;20186;-45
2023/12/01 05:50:25;;;;;;;6.83;5.93;;;13.90;61.30;14.80;99623.00;;;;5050017;28;20229;-45
2023/12/01 05:52:52;;;;;;;5.87;5.33;;;13.90;61.30;14.70;99620.00;;;;5051181;28;20182;-43
2023/12/01 05:55:26;;;;;;;7.87;5.57;;;13.90;61.30;14.70;99623.00;;;;5050627;28;20170;-44
2023/12/01 05:57:57;;;;;;;6.00;5.40;;;13.90;61.30;14.70;99630.00;;;;5050264;28;20228;-43
2023/12/01 06:00:29;;;;;;;5.73;5.13;;;13.90;61.30;14.70;99631.00;;;;5051569;28;20171;-43
2023/12/01 06:02:59;;;;;;;5.53;5.10;;;13.90;61.30;14.70;99631.00;;;;5050949;28;20182;-44
2023/12/01 06:05:25;;;;;;;5.40;4.97;;;13.90;61.30;14.70;99629.00;;;;5051569;28;20189;-44
2023/12/01 06:07:54;;;;;;;5.50;5.00;;;13.80;61.20;14.70;99642.00;;;;5051614;28;20182;-44
2023/12/01 06:10:21;;;;;;;6.23;4.80;;;13.90;61.40;14.70;99637.00;;;;5051521;28;20753;-44
2023/12/01 06:12:47;;;;;;;5.30;4.80;;;13.90;61.40;14.70;99645.00;;;;5051109;28;20232;-44
2023/12/01 06:15:14;;;;;;;5.47;4.97;;;13.90;61.40;14.70;99644.00;;;;5044036;28;20575;-44
2023/12/01 06:17:41;;;;;;;5.00;4.33;;;13.80;61.40;14.70;99648.00;;;;5051731;28;20181;-43
2023/12/01 06:20:19;;;;;;;5.70;4.60;;;13.80;61.40;14.70;99656.00;;;;5051401;28;20610;-43
2023/12/01 06:22:59;;;;;;;4.57;4.17;;;13.80;61.40;14.70;99653.00;;;;5051170;28;20256;-44
2023/12/01 06:25:27;;;;;;;4.90;4.50;;;13.80;61.50;14.70;99663.00;;;;5051131;28;20232;-44
2023/12/01 06:27:56;;;;;;;4.60;4.20;;;13.80;61.50;14.60;99653.00;;;;5050871;28;20245;-44
2023/12/01 06:30:23;;;;;;;4.40;4.00;;;13.70;61.40;14.60;99637.00;;;;5050974;28;20286;-44
2023/12/01 06:32:50;;;;;;;4.90;4.50;;;13.70;61.40;14.60;99667.00;;;;5049658;28;20171;-44
2023/12/01 06:35:17;;;;;;;4.77;4.37;;;13.70;61.50;14.60;99669.00;;;;5045906;28;20224;-44
2023/12/01 06:37:43;;;;;;;4.20;3.90;;;13.70;61.50;14.60;99670.00;;;;5046645;28;20175;-44
2023/12/01 06:40:15;;;;;;;4.53;4.17;;;13.70;61.50;14.60;99678.00;;;;5050828;28;20174;-44
2023/12/01 06:42:42;;;;;;;4.47;4.07;;;13.70;61.50;14.60;99676.00;;;;5049013;28;20178;-45
2023/12/01 06:45:13;;;;;;;4.70;4.30;;;13.70;61.50;14.60;99686.00;;;;5049367;28;20202;-45
2023/12/01 06:47:42;;;;;;;4.60;4.20;;;13.70;61.50;14.60;99685.00;;;;5050624;28;20594;-45
2023/12/01 06:50:11;;;;;;;3.80;3.50;;;13.70;61.50;14.50;99688.00;;;;5049087;28;20553;-43
2023/12/01 06:52:38;;;;;;;4.23;3.93;;;13.70;61.60;14.60;99687.00;;;;5050799;28;20178;-44
2023/12/01 06:55:07;;;;;;;4.33;3.93;;;13.60;61.50;14.50;99693.00;;;;5050102;28;20240;-45
2023/12/01 06:57:39;;;;;;;4.30;3.90;;;13.60;61.60;14.50;99699.00;;;;5049407;28;20174;-44
2023/12/01 07:02:56;;;;;;;4.17;3.77;;;13.60;61.50;14.50;99710.00;;;;5049747;28;20197;-44
2023/12/01 07:05:23;;;;;;;3.80;3.50;;;13.60;61.50;14.50;99707.00;;;;5049483;28;20181;-47
2023/12/01 07:07:48;;;;;;;3.73;3.43;;;13.60;61.60;14.50;99710.00;;;;5047335;28;20174;-44
2023/12/01 07:10:15;;;;;;;3.93;3.63;;;13.60;61.70;14.50;99712.00;;;;5042508;28;20691;-44
2023/12/01 07:12:40;;;;;;;3.97;3.67;;;13.60;61.70;14.50;99715.00;;;;5047631;28;20279;-44
2023/12/01 07:15:11;;;;;;;3.87;3.57;;;13.60;61.70;14.50;99719.00;;;;5048941;28;20229;-44
2023/12/01 07:17:40;;;;;;;3.70;3.40;;;13.60;61.80;14.40;99699.00;;;;5049304;28;20225;-44
2023/12/01 07:20:14;;;;;;;3.70;3.40;;;13.60;61.80;14.40;99718.00;;;;5048110;28;20308;-44
2023/12/01 07:22:42;;;;;;;3.70;3.40;;;13.60;61.80;14.40;99733.00;;;;5049528;28;20324;-44
2023/12/01 07:25:10;;;;;;;3.80;3.50;;;13.50;61.70;14.40;99713.00;;;;5047940;28;20279;-44
2023/12/01 07:27:40;;;;;;;3.77;3.47;;;13.50;61.70;14.40;99716.00;;;;5047797;28;20178;-43
2023/12/01 07:30:06;;;;;;;3.60;3.30;;;13.50;61.70;14.40;99689.00;;;;5049390;28;20191;-43
2023/12/01 07:32:33;;;;;;;3.90;3.50;;;13.50;61.70;14.40;99723.00;;;;5043582;28;20206;-43
2023/12/01 07:34:58;;;;;;;3.70;3.40;;;13.50;61.80;14.40;99735.00;;;;5047545;28;20240;-44
2023/12/01 07:37:24;;;;;;;3.83;3.50;;;13.40;61.70;14.40;99726.00;;;;5049471;28;20229;-43
2023/12/01 07:39:50;;;;;;;3.80;3.50;;;13.50;61.80;14.40;99724.00;;;;5049278;28;20198;-44
2023/12/01 07:42:16;;;;;;;3.50;3.20;;;13.40;61.70;14.40;99726.00;;;;5049222;28;20200;-44
2023/12/01 07:44:42;;;;;;;3.63;3.33;;;13.40;61.60;14.30;99723.00;;;;5048773;28;20195;-43
2023/12/01 07:47:11;;;;;;;4.00;3.60;;;13.40;61.70;14.30;99721.00;;;;5048610;28;20833;-45
2023/12/01 07:49:38;;;;;;;3.60;3.30;;;13.40;61.70;14.30;99719.00;;;;5048971;28;20259;-45
2023/12/01 07:52:06;;;;;;;3.50;3.20;;;13.40;61.80;14.30;99717.00;;;;5048153;28;20171;-43
2023/12/01 07:54:33;;;;;;;3.47;3.17;;;13.40;61.80;14.30;99721.00;;;;5048642;28;20277;-43
2023/12/01 07:56:59;;;;;;;3.57;3.27;;;13.40;61.80;14.30;99732.00;;;;5048739;28;20178;-45
2023/12/01 07:59:25;;;;;;;3.60;3.30;;;13.40;61.80;14.30;99728.00;;;;5048481;28;20174;-43
2023/12/01 08:01:51;;;;;;;3.50;3.20;;;13.40;61.90;14.30;99722.00;;;;5048601;28;20664;-44
2023/12/01 08:04:16;;;;;;;3.10;2.90;;;13.40;61.80;14.30;99732.00;;;;5040501;28;20633;-43
2023/12/01 08:06:42;;;;;;;3.53;3.23;;;13.40;61.80;14.30;99735.00;;;;5047631;28;20228;-44
2023/12/01 08:09:08;;;;;;;3.47;3.17;;;13.30;61.70;14.20;99731.00;;;;5048275;28;20293;-44
2023/12/01 08:11:34;;;;;;;3.63;3.33;;;13.30;61.70;14.20;99737.00;;;;5049179;28;20181;-44
2023/12/01 08:14:03;;;;;;;3.47;3.17;;;13.30;61.70;14.20;99745.00;;;;5048487;28;20190;-44
2023/12/01 08:16:29;;;;;;;3.20;3.00;;;13.30;61.70;14.20;99739.00;;;;5047771;28;20656;-43
2023/12/01 08:18:58;;;;;;;3.10;2.90;;;13.30;61.70;14.20;99754.00;;;;5048910;28;20293;-43
2023/12/01 08:21:24;;;;;;;3.47;3.23;;;13.30;61.80;14.20;99747.00;;;;5048697;28;20660;-44
2023/12/01 08:23:49;;;;;;;3.30;3.00;;;13.30;61.80;14.20;99746.00;;;;5046869;28;20201;-44
2023/12/01 08:26:15;;;;;;;3.23;2.93;;;13.30;61.80;14.20;99758.00;;;;5048678;28;20746;-44
2023/12/01 08:28:41;;;;;;;3.33;3.13;;;13.20;61.70;14.20;99750.00;;;;5048763;28;20217;-44
2023/12/01 08:31:07;;;;;;;3.20;3.00;;;13.30;61.90;14.20;99748.00;;;;5048134;28;20221;-44
2023/12/01 08:33:35;;;;;;;3.10;2.90;;;13.20;61.70;14.10;99749.00;;;;5047956;28;20194;-44
2023/12/01 08:36:01;;;;;;;3.37;3.07;;;13.20;61.80;14.10;99755.00;;;;5048484;28;20182;-44
2023/12/01 08:38:27;;;;;;;3.13;2.83;;;13.20;61.70;14.10;99760.00;;;;5048468;28;20178;-44
2023/12/01 08:40:53;;;;;;;3.40;3.10;;;13.20;61.80;14.10;99764.00;;;;5048310;28;20538;-44
2023/12/01 08:43:18;;;;;;;3.23;3.00;;;13.20;61.80;14.10;99759.00;;;;5047847;28;20810;-43
2023/12/01 08:45:44;;;;;;;3.10;2.90;;;13.20;61.90;14.10;99764.00;;;;5048434;28;20182;-44
2023/12/01 08:48:10;;;;;;;3.30;3.10;;;13.20;61.90;14.10;99759.00;;;;5048137;28;20544;-44
2023/12/01 08:50:35;;;;;;;3.53;3.23;;;13.20;62.00;14.10;99765.00;;;;5050802;28;20198;-44
2023/12/01 08:53:01;;;;;;;3.27;3.07;;;13.10;61.90;14.10;99763.00;;;;5049057;28;20181;-43
2023/12/01 08:55:27;;;;;;;3.33;3.10;;;13.20;62.00;14.10;99762.00;;;;5047232;28;20186;-43
2023/12/01 08:57:53;;;;;;;3.13;2.83;;;13.10;61.90;14.00;99762.00;;;;5048713;28;20248;-44
2023/12/01 09:00:21;;;;;;;2.90;2.70;;;13.10;61.90;14.00;99761.00;;;;5046020;28;20178;-43
2023/12/01 09:02:49;;;;;;;3.10;2.90;;;13.10;61.90;14.00;99769.00;;;;5047963;28;20293;-44
2023/12/01 09:05:17;;;;;;;3.30;3.00;;;13.10;62.10;14.00;99772.00;;;;5048053;28;20698;-44
2023/12/01 09:07:49;;;;;;;3.13;2.93;;;13.10;62.00;14.00;99767.00;;;;5051129;28;20178;-43
2023/12/01 09:10:15;;;;;;;3.23;2.97;;;13.10;62.10;14.00;99764.00;;;;5045000;28;20209;-45
2023/12/01 09:12:42;;;;;;;2.83;2.63;;;13.10;62.10;14.00;99772.00;;;;5043763;28;20178;-44
2023/12/01 09:15:10;;;;;;;3.33;3.03;;;13.10;62.00;13.90;99772.00;;;;5050459;28;20190;-43
2023/12/01 09:17:35;;;;;;;3.10;2.80;;;13.10;62.80;13.90;99775.00;;;;5052145;28;20661;-45
2023/12/01 09:20:01;;;;;;;5.17;3.03;;;13.00;62.90;13.90;99779.00;;;;5050079;28;20190;-43
2023/12/01 09:22:27;;;;;;;5.50;2.97;;;13.00;62.60;13.90;99779.00;;;;5051519;28;20228;-44
2023/12/01 09:24:53;;;;;;;3.80;3.27;;;13.00;62.30;13.90;99794.00;;;;5050863;28;20237;-44
2023/12/01 09:27:19;;;;;;;7.33;3.27;;;13.10;62.40;13.90;99782.00;;;;5051602;28;20658;-45
2023/12/01 09:29:45;;;;;;;8.90;3.70;;;13.00;62.40;13.90;99789.00;;;;5049094;28;20738;-46
2023/12/01 09:32:11;;;;;;;7.23;3.50;;;13.00;62.40;13.90;99797.00;;;;5050743;28;20179;-43
2023/12/01 09:34:36;;;;;;;5.27;3.20;;;13.00;62.40;13.90;99793.00;;;;5051299;28;20237;-44
2023/12/01 09:37:02;;;;;;;11.43;3.10;;;13.00;62.70;13.90;99796.00;;;;5051021;28;20190;-43
2023/12/01 09:39:29;;;;;;;7.57;2.97;;;13.00;63.10;13.80;99793.00;;;;5050891;28;20193;-43
2023/12/01 09:41:55;;;;;;;6.40;2.80;;;13.10;63.20;13.80;99800.00;;;;5050758;28;20174;-43
2023/12/01 09:44:21;;;;;;;6.80;3.20;;;13.10;63.40;13.90;99810.00;;;;5030322;28;20199;-44
2023/12/01 09:46:46;;;;;;;3.90;2.83;;;13.20;63.50;13.90;99794.00;;;;5047674;28;20232;-44
2023/12/01 09:49:12;;;;;;;5.87;3.03;;;13.20;63.20;14.00;99803.00;;;;5033195;28;20268;-44
2023/12/01 09:51:38;;;;;;;4.87;3.07;;;13.30;63.30;14.00;99803.00;;;;5050963;28;20189;-44
2023/12/01 09:54:04;;;;;;;9.07;3.27;;;13.40;63.30;14.10;99810.00;;;;5050282;28;20206;-44
2023/12/01 09:56:30;;;;;;;4.70;2.80;;;13.50;63.30;14.20;99812.00;;;;5050547;28;20257;-43
2023/12/01 09:58:56;;;;;;;4.00;2.73;;;13.60;63.20;14.30;99821.00;;;;5050390;28;20210;-44
2023/12/01 10:01:22;;;;;;;4.87;2.60;;;13.70;63.20;14.30;99819.00;;;;5051311;28;20198;-44
2023/12/01 10:03:48;;;;;;;6.87;2.80;;;13.80;62.80;14.50;99822.00;;;;5045315;28;20620;-43
2023/12/01 10:06:13;;;;;;;7.90;3.07;;;14.00;63.00;14.60;99808.00;;;;5043712;28;20182;-43
2023/12/01 10:08:40;;;;;;;4.73;2.50;;;14.10;63.00;14.70;99826.00;;;;5051312;28;20178;-43
2023/12/01 10:11:26;;;;;;;5.17;2.50;;;14.30;62.80;14.80;99820.00;;;;5050408;28;20765;-44
2023/12/01 10:13:52;;;;;;;4.80;2.67;;;14.40;62.40;14.90;99822.00;;;;5050686;28;20213;-43
2023/12/01 10:16:18;;;;;;;5.80;2.53;;;14.60;62.50;15.00;99808.00;;;;5051025;28;20175;-43
2023/12/01 10:19:01;;;;;;;5.07;2.53;;;14.80;62.20;15.20;99810.00;;;;5049907;28;20217;-43
2023/12/01 10:21:44;;;;;;;9.80;2.87;;;14.90;61.90;15.30;99706.00;;;;5049877;28;20235;-43
2023/12/01 10:24:15;;;;;;;4.77;2.47;;;15.10;61.70;15.50;99805.00;;;;5048043;28;20248;-43
2023/12/01 10:26:41;;;;;;;3.93;2.80;;;15.20;61.60;15.60;99805.00;;;;5050830;28;20182;-43
2023/12/01 10:29:29;;;;;;;4.83;2.60;;;15.30;61.70;15.70;99799.00;;;;5049912;28;20175;-43
2023/12/01 10:32:06;;;;;;;3.53;2.30;;;15.50;62.00;15.80;99807.00;;;;5030196;28;20174;-43
2023/12/01 10:34:32;;;;;;;5.17;2.50;;;15.60;62.10;15.90;99809.00;;;;5045928;28;20233;-43
2023/12/01 10:36:58;;;;;;;3.80;2.40;;;15.70;62.10;16.00;99803.00;;;;5050778;28;20206;-44
2023/12/01 10:39:25;;;;;;;7.53;2.60;;;15.80;62.10;16.10;99799.00;;;;5050824;28;20286;-44
2023/12/01 10:41:53;;;;;;;3.73;2.60;;;15.90;61.70;16.20;99805.00;;;;5050482;28;20652;-44
2023/12/01 10:44:22;;;;;;;5.00;2.40;;;16.00;61.60;16.30;99798.00;;;;5050694;28;20753;-44
2023/12/01 10:46:47;;;;;;;2.67;2.37;;;16.10;61.40;16.40;99797.00;;;;5045752;28;20205;-43
2023/12/01 10:49:16;;;;;;;4.00;2.50;;;16.10;61.20;16.50;99804.00;;;;5027052;28;20207;-43
2023/12/01 10:51:42;;;;;;;2.90;2.60;;;16.20;61.10;16.60;99804.00;;;;5045946;28;20671;-43
2023/12/01 10:54:10;;;;;;;4.17;2.30;;;16.30;61.00;16.70;99803.00;;;;5049718;28;20187;-44
2023/12/01 10:57:03;;;;;;;3.87;2.50;;;16.40;60.90;16.80;99801.00;;;;5050385;28;20186;-43